Time;durP1;ratioP1;P1;durP2;ratioP2;P2;SDS_P1;SDS_P2;PMS_P1;PMS_P2;Temp;Humidity;BMP_temperature;BMP_pressure;BME280_temperature;BME280_humidity;BME280_pressure;Samples;Min_cycle;Max_cycle;Signal;HPM_P1;HPM_P2
2022/02/14 00:00:53;;;;;;;19.98;11.05;;;;;;;3.15;73.10;100895.28;5114873;28;20043;-78
2022/02/14 00:03:22;;;;;;;17.98;10.13;;;;;;;3.20;72.58;100896.09;5115715;28;20044;-76
2022/02/14 00:05:50;;;;;;;19.58;10.65;;;;;;;3.16;73.00;100897.91;5116052;28;20092;-77
2022/02/14 00:08:19;;;;;;;19.73;10.82;;;;;;;3.16;73.00;100886.50;5097957;28;20050;-78
2022/02/14 00:10:48;;;;;;;18.42;10.45;;;;;;;3.30;72.11;100884.47;5115714;28;20485;-78
2022/02/14 00:13:17;;;;;;;21.73;10.63;;;;;;;3.21;72.51;100894.31;5115462;28;20128;-78
2022/02/14 00:15:48;;;;;;;21.70;10.73;;;;;;;3.10;73.25;100887.50;5115764;28;20469;-77
2022/02/14 00:18:16;;;;;;;18.58;10.68;;;;;;;3.01;73.27;100881.53;5115718;28;20127;-78
2022/02/14 00:20:44;;;;;;;20.10;10.57;;;;;;;3.00;73.65;100887.69;5115646;28;20044;-77
2022/02/14 00:23:12;;;;;;;18.60;10.32;;;;;;;3.03;73.49;100885.88;5115268;28;20053;-78
2022/02/14 00:25:41;;;;;;;19.88;10.23;;;;;;;3.19;72.56;100880.31;5116075;28;20043;-78
2022/02/14 00:28:09;;;;;;;19.08;10.85;;;;;;;3.10;73.26;100873.44;5115468;28;20047;-78
2022/02/14 00:30:38;;;;;;;19.00;10.07;;;;;;;3.16;72.21;100865.41;5115634;28;20097;-76
2022/02/14 00:33:27;;;;;;;19.55;10.18;;;;;;;3.18;72.32;100866.22;5116311;28;20050;-76
2022/02/14 00:35:56;;;;;;;20.00;9.95;;;;;;;3.29;71.66;100861.63;5115202;28;20051;-77
2022/02/14 00:38:24;;;;;;;17.48;10.48;;;;;;;3.25;72.14;100859.94;5115525;28;20082;-76
2022/02/14 00:40:52;;;;;;;19.60;10.75;;;;;;;3.16;72.42;100860.13;5115252;28;20104;-77
2022/02/14 00:43:21;;;;;;;19.83;10.75;;;;;;;3.26;71.81;100863.44;5115706;28;20392;-77
2022/02/14 00:45:51;;;;;;;19.75;10.73;;;;;;;3.13;72.92;100861.06;5097174;28;20047;-78
2022/02/14 00:48:19;;;;;;;19.38;9.90;;;;;;;3.20;72.38;100856.53;5114973;28;20059;-79
2022/02/14 00:50:48;;;;;;;20.42;10.68;;;;;;;3.16;72.57;100850.44;5115604;28;20127;-76
2022/02/14 00:53:17;;;;;;;17.30;9.98;;;;;;;3.18;72.11;100853.03;5115178;28;20054;-76
2022/02/14 00:55:45;;;;;;;18.77;9.90;;;;;;;3.19;72.12;100841.63;5097028;28;20052;-74
2022/02/14 00:58:15;;;;;;;18.77;9.98;;;;;;;3.36;71.42;100842.13;5096982;28;20044;-76
2022/02/14 01:00:43;;;;;;;18.17;10.40;;;;;;;3.29;71.76;100845.81;5115281;28;20050;-76
2022/02/14 01:03:13;;;;;;;18.67;10.73;;;;;;;3.22;72.24;100838.91;5114974;28;20130;-76
2022/02/14 01:05:41;;;;;;;18.90;10.95;;;;;;;3.23;72.20;100840.66;5096860;28;20134;-76
2022/02/14 01:08:10;;;;;;;17.13;10.52;;;;;;;3.21;72.70;100834.56;5115517;28;20088;-76
2022/02/14 01:10:38;;;;;;;19.25;10.40;;;;;;;3.14;72.97;100827.66;5114643;28;20047;-77
2022/02/14 01:13:06;;;;;;;19.02;10.90;;;;;;;3.11;73.27;100820.69;5114199;28;20473;-79
2022/02/14 01:15:34;;;;;;;20.52;11.43;;;;;;;3.08;73.74;100822.50;5114491;28;20104;-78
2022/02/14 01:18:03;;;;;;;19.60;10.73;;;;;;;3.04;73.35;100819.06;5114438;28;20509;-78
2022/02/14 01:20:33;;;;;;;19.42;10.73;;;;;;;3.05;73.59;100819.94;5114893;28;20047;-79
2022/02/14 01:23:01;;;;;;;17.35;10.23;;;;;;;2.86;74.80;100819.44;5114313;28;20044;-78
2022/02/14 01:25:29;;;;;;;20.23;10.32;;;;;;;2.94;74.13;100801.72;5114629;28;20051;-78
2022/02/14 01:27:58;;;;;;;19.73;10.70;;;;;;;2.99;74.29;100809.50;5096434;28;20128;-84
2022/02/14 01:30:26;;;;;;;20.27;10.80;;;;;;;2.92;74.71;100815.81;5114893;28;20122;-78
2022/02/14 01:32:58;;;;;;;19.80;10.85;;;;;;;2.90;75.09;100804.44;5096499;28;20054;-78
2022/02/14 01:35:27;;;;;;;19.27;10.45;;;;;;;2.88;74.61;100792.16;5114130;28;20409;-77
2022/02/14 01:37:59;;;;;;;20.55;10.65;;;;;;;2.88;74.71;100794.78;5114104;28;20055;-77
2022/02/14 01:40:28;;;;;;;20.85;10.82;;;;;;;2.69;75.79;100782.88;5095838;28;20048;-78
2022/02/14 01:42:56;;;;;;;19.52;10.57;;;;;;;2.63;76.61;100793.53;5114219;28;20036;-78
2022/02/14 01:45:24;;;;;;;19.85;11.15;;;;;;;2.45;76.73;100791.25;5114000;28;20529;-75
2022/02/14 01:47:53;;;;;;;19.42;11.32;;;;;;;2.27;77.71;100800.34;5113831;28;20123;-75
2022/02/14 01:50:22;;;;;;;19.67;11.65;;;;;;;2.13;78.93;100799.72;5095542;28;20093;-76
2022/02/14 01:52:54;;;;;;;22.48;12.32;;;;;;;2.04;79.36;100789.34;5113772;28;20393;-76
2022/02/14 01:55:24;;;;;;;22.20;12.27;;;;;;;1.95;79.73;100780.72;5113785;28;20097;-75
2022/02/14 01:57:52;;;;;;;21.40;12.13;;;;;;;1.88;80.59;100783.47;5095666;28;20135;-75
2022/02/14 02:00:21;;;;;;;24.88;12.73;;;;;;;1.87;80.34;100777.34;5113566;28;20039;-75
2022/02/14 02:02:50;;;;;;;23.02;12.23;;;;;;;1.71;81.44;100781.09;5114057;28;20050;-75
2022/02/14 02:05:19;;;;;;;22.25;12.93;;;;;;;1.56;82.15;100779.59;5113614;28;20063;-76
2022/02/14 02:07:48;;;;;;;23.45;12.77;;;;;;;1.50;82.94;100771.78;5113825;28;20373;-76
2022/02/14 02:10:19;;;;;;;24.98;13.07;;;;;;;1.41;83.85;100769.28;5113208;28;20051;-76
2022/02/14 02:12:51;;;;;;;20.73;11.93;;;;;;;1.41;84.28;100762.25;5113685;28;20201;-76
2022/02/14 02:15:19;;;;;;;22.75;12.02;;;;;;;1.28;84.70;100770.34;5113417;28;20483;-76
2022/02/14 02:17:48;;;;;;;22.23;11.82;;;;;;;1.20;85.21;100764.34;5113442;28;20130;-75
2022/02/14 02:20:18;;;;;;;24.20;12.32;;;;;;;1.19;85.40;100770.47;5113088;28;20097;-76
2022/02/14 02:22:49;;;;;;;25.88;12.73;;;;;;;1.04;86.95;100766.28;5095762;28;20048;-76
2022/02/14 02:25:19;;;;;;;23.95;13.15;;;;;;;1.05;87.22;100761.00;5113141;28;20040;-76
2022/02/14 02:27:48;;;;;;;24.58;13.43;;;;;;;1.26;85.41;100753.75;5113407;28;20040;-76
2022/02/14 02:30:22;;;;;;;20.00;11.95;;;;;;;1.08;86.31;100753.09;5113293;28;20067;-76
2022/02/14 02:32:52;;;;;;;25.45;13.35;;;;;;;0.91;87.38;100755.06;5095603;28;20044;-75
2022/02/14 02:35:21;;;;;;;24.75;13.80;;;;;;;0.91;87.42;100749.81;5112803;28;20504;-75
2022/02/14 02:37:49;;;;;;;23.92;12.93;;;;;;;1.01;86.50;100754.06;5113426;28;20093;-75
2022/02/14 02:40:18;;;;;;;25.13;12.98;;;;;;;0.93;86.65;100758.53;5113165;28;20404;-77
2022/02/14 02:42:47;;;;;;;21.98;12.85;;;;;;;0.84;87.89;100749.03;5113501;28;20082;-79
2022/02/14 02:45:15;;;;;;;23.23;12.60;;;;;;;0.91;87.53;100748.94;5113503;28;20100;-79
2022/02/14 02:47:43;;;;;;;21.52;13.25;;;;;;;1.02;86.28;100741.78;5112966;28;20039;-76
2022/02/14 02:50:12;;;;;;;24.60;12.82;;;;;;;0.78;87.74;100738.59;5113106;28;20044;-76
2022/02/14 02:52:42;;;;;;;25.48;13.48;;;;;;;0.69;89.08;100738.72;5095458;28;20062;-76
2022/02/14 02:55:11;;;;;;;26.27;13.90;;;;;;;0.77;88.45;100736.88;5113016;28;20126;-76
2022/02/14 02:57:40;;;;;;;25.50;13.25;;;;;;;0.82;88.37;100728.94;5113032;28;20047;-76
2022/02/14 03:00:12;;;;;;;25.55;13.90;;;;;;;0.81;88.37;100730.69;5113070;28;20044;-76
2022/02/14 03:02:40;;;;;;;28.10;14.10;;;;;;;0.72;89.06;100729.94;5113365;28;20119;-76
2022/02/14 03:05:09;;;;;;;26.30;14.43;;;;;;;0.78;88.23;100727.25;5112732;28;20057;-76
2022/02/14 03:07:37;;;;;;;26.77;14.68;;;;;;;0.75;88.70;100716.75;5113254;28;20032;-76
2022/02/14 03:10:07;;;;;;;29.05;14.98;;;;;;;0.85;87.54;100715.75;5094741;28;20385;-75
2022/02/14 03:12:35;;;;;;;27.75;15.93;;;;;;;0.78;87.69;100722.84;5098990;28;20108;-75
2022/02/14 03:15:06;;;;;;;30.00;16.48;;;;;;;0.75;88.10;100719.38;5117102;28;20039;-75
2022/02/14 03:17:35;;;;;;;27.45;15.35;;;;;;;0.67;89.16;100718.59;5099010;28;20403;-75
2022/02/14 03:20:04;;;;;;;32.50;16.50;;;;;;;0.59;89.11;100718.72;5117222;28;20071;-75
2022/02/14 03:22:32;;;;;;;30.55;16.15;;;;;;;0.59;89.54;100720.47;5098734;28;20070;-76
2022/02/14 03:25:01;;;;;;;29.02;15.02;;;;;;;0.44;90.88;100719.75;5117172;28;20070;-76
2022/02/14 03:27:30;;;;;;;30.27;15.77;;;;;;;0.41;91.94;100725.03;5116524;28;20061;-76
2022/02/14 03:29:58;;;;;;;30.27;15.57;;;;;;;0.29;93.36;100722.56;5098869;28;20139;-75
2022/02/14 03:32:27;;;;;;;27.77;16.27;;;;;;;0.27;95.10;100717.31;5116804;28;20047;-76
2022/02/14 03:34:56;;;;;;;31.17;16.80;;;;;;;0.12;95.14;100727.13;5116839;28;20043;-76
2022/02/14 03:37:26;;;;;;;31.80;15.73;;;;;;;0.07;96.58;100721.03;5116648;28;20044;-75
2022/02/14 03:39:55;;;;;;;28.73;16.33;;;;;;;0.08;97.33;100721.00;5116609;28;20040;-76
2022/02/14 03:42:23;;;;;;;33.20;16.23;;;;;;;0.17;96.28;100718.28;5098442;28;20043;-75
2022/02/14 03:44:51;;;;;;;30.00;15.90;;;;;;;0.27;94.95;100716.44;5116675;28;20477;-76
2022/02/14 03:47:20;;;;;;;27.98;14.88;;;;;;;0.32;94.47;100719.91;5116744;28;20134;-75
2022/02/14 03:49:50;;;;;;;32.35;17.70;;;;;;;0.37;93.64;100707.56;5116512;28;20051;-76
2022/02/14 03:52:18;;;;;;;32.15;16.55;;;;;;;0.41;93.19;100711.94;5098004;28;20139;-76
2022/02/14 03:54:46;;;;;;;31.95;17.90;;;;;;;0.36;92.98;100708.47;5098242;28;20043;-76
2022/02/14 03:57:14;;;;;;;31.70;16.85;;;;;;;0.27;93.59;100698.06;5097758;28;20051;-76
2022/02/14 03:59:43;;;;;;;30.42;16.02;;;;;;;0.19;94.68;100699.91;5097917;28;20054;-75
2022/02/14 04:02:11;;;;;;;34.38;16.95;;;;;;;0.20;94.00;100699.03;5097553;28;20047;-76
2022/02/14 04:04:39;;;;;;;28.75;16.25;;;;;;;0.25;94.49;100699.84;5115771;28;20504;-75
2022/02/14 04:07:09;;;;;;;29.65;16.02;;;;;;;0.22;93.94;100697.28;5116071;28;20067;-80
2022/02/14 04:09:38;;;;;;;32.20;15.98;;;;;;;0.09;95.17;100699.13;5116085;28;20040;-75
2022/02/14 04:12:06;;;;;;;33.42;16.27;;;;;;;-0.09;97.09;100707.22;5115991;28;20044;-78
2022/02/14 04:14:35;;;;;;;29.63;16.05;;;;;;;-0.09;98.37;100705.47;5115960;28;20059;-79
2022/02/14 04:17:03;;;;;;;29.15;16.25;;;;;;;-0.06;97.66;100710.66;5116220;28;20043;-78
2022/02/14 04:19:32;;;;;;;31.92;16.63;;;;;;;-0.21;99.81;100699.44;5097982;28;20088;-79
2022/02/14 04:22:00;;;;;;;30.08;16.00;;;;;;;-0.36;100.00;100701.31;5114790;28;20134;-79
2022/02/14 04:24:32;;;;;;;28.70;16.58;;;;;;;-0.40;100.00;100698.72;5115757;28;20058;-78
2022/02/14 04:27:00;;;;;;;32.60;17.63;;;;;;;-0.33;100.00;100690.81;5115823;28;20139;-83
2022/02/14 04:29:30;;;;;;;33.10;17.33;;;;;;;-0.39;100.00;100697.84;5115793;28;20096;-80
2022/02/14 04:31:58;;;;;;;32.28;16.80;;;;;;;-0.35;100.00;100684.72;5115407;28;20103;-81
2022/02/14 04:34:29;;;;;;;33.33;16.80;;;;;;;-0.30;100.00;100684.66;5115012;28;20565;-81
2022/02/14 04:36:57;;;;;;;42.00;19.05;;;;;;;-0.34;100.00;100682.97;5115579;28;20043;-84
2022/02/14 04:39:25;;;;;;;34.47;18.40;;;;;;;-0.23;100.00;100680.22;5115495;28;20054;-81
2022/02/14 04:41:55;;;;;;;32.25;17.58;;;;;;;-0.26;100.00;100678.53;5115381;28;20089;-81
2022/02/14 04:44:24;;;;;;;29.85;16.50;;;;;;;-0.22;100.00;100681.97;5115157;28;20097;-81
2022/02/14 04:46:52;;;;;;;32.45;16.45;;;;;;;-0.18;100.00;100681.06;5115254;28;20047;-80
2022/02/14 04:49:21;;;;;;;34.88;16.98;;;;;;;-0.08;100.00;100674.84;5115463;28;20059;-78
2022/02/14 04:51:49;;;;;;;33.70;17.33;;;;;;;-0.19;100.00;100681.94;5115598;28;20096;-78
2022/02/14 04:54:17;;;;;;;38.55;18.60;;;;;;;-0.25;100.00;100676.75;5096944;28;20055;-78
2022/02/14 04:56:45;;;;;;;37.65;19.80;;;;;;;-0.31;100.00;100682.91;5115359;28;20048;-78
2022/02/14 04:59:15;;;;;;;38.78;18.58;;;;;;;-0.46;100.00;100688.31;5114723;28;20040;-79
2022/02/14 05:01:43;;;;;;;41.10;20.58;;;;;;;-0.48;100.00;100692.66;5115298;28;20040;-78
2022/02/14 05:04:12;;;;;;;37.00;19.85;;;;;;;-0.49;100.00;100688.31;5096600;28;20489;-82
2022/02/14 05:06:42;;;;;;;39.42;19.58;;;;;;;-0.47;100.00;100689.19;5096939;28;20085;-78
2022/02/14 05:09:10;;;;;;;38.10;21.10;;;;;;;-0.47;100.00;100692.69;5114728;28;20123;-77
2022/02/14 05:11:39;;;;;;;39.30;20.02;;;;;;;-0.50;100.00;100691.81;5115331;28;20468;-80
2022/02/14 05:14:07;;;;;;;38.78;18.88;;;;;;;-0.60;100.00;100691.91;5114923;28;20044;-80
2022/02/14 05:16:37;;;;;;;36.70;18.13;;;;;;;-0.45;100.00;100690.91;5114659;28;20101;-80
2022/02/14 05:19:06;;;;;;;35.13;18.48;;;;;;;-0.51;100.00;100692.72;5096577;28;20112;-79
2022/02/14 05:21:34;;;;;;;37.22;19.58;;;;;;;-0.40;100.00;100693.47;5114469;28;20044;-79
2022/02/14 05:24:03;;;;;;;35.50;17.50;;;;;;;-0.30;100.00;100695.13;5096478;28;20044;-78
2022/02/14 05:26:31;;;;;;;37.35;18.85;;;;;;;-0.38;100.00;100681.25;5114554;28;20046;-78
2022/02/14 05:29:00;;;;;;;39.25;21.05;;;;;;;-0.47;100.00;100697.06;5114503;28;20047;-80
2022/02/14 05:31:29;;;;;;;37.40;20.90;;;;;;;-0.44;100.00;100689.16;5095964;28;20074;-80
2022/02/14 05:33:59;;;;;;;40.95;20.88;;;;;;;-0.33;100.00;100692.56;5096210;28;20070;-80
2022/02/14 05:36:28;;;;;;;38.92;21.05;;;;;;;-0.45;100.00;100690.03;5114139;28;20374;-81
2022/02/14 05:38:56;;;;;;;35.50;18.75;;;;;;;-0.48;100.00;100690.06;5114145;28;20408;-82
2022/02/14 05:41:27;;;;;;;41.25;20.40;;;;;;;-0.37;100.00;100696.09;5095900;28;20051;-82
2022/02/14 05:43:55;;;;;;;37.53;19.95;;;;;;;-0.25;100.00;100690.75;5096156;28;20056;-81
2022/02/14 05:46:23;;;;;;;36.15;18.13;;;;;;;-0.21;100.00;100697.69;5113619;28;20047;-80
2022/02/14 05:48:52;;;;;;;34.35;18.15;;;;;;;-0.32;100.00;100696.91;5095639;28;20104;-79
2022/02/14 05:51:21;;;;;;;35.30;17.73;;;;;;;-0.29;100.00;100699.50;5113728;28;20039;-79
2022/02/14 05:53:50;;;;;;;33.42;17.77;;;;;;;-0.41;100.00;100702.22;5114364;28;20440;-80
2022/02/14 05:56:19;;;;;;;37.70;18.42;;;;;;;-0.56;100.00;100713.72;5114378;28;20039;-81
2022/02/14 05:58:47;;;;;;;32.97;17.63;;;;;;;-0.54;100.00;100714.56;5095899;28;20051;-81
2022/02/14 06:01:15;;;;;;;37.58;20.08;;;;;;;-0.49;100.00;100719.75;5115773;28;20477;-81
2022/02/14 06:03:44;;;;;;;39.55;20.25;;;;;;;-0.59;100.00;100719.84;5113835;28;20048;-81
2022/02/14 06:06:12;;;;;;;35.42;18.88;;;;;;;-0.61;100.00;100720.72;5114013;28;20502;-82
2022/02/14 06:08:42;;;;;;;35.60;19.63;;;;;;;-0.57;100.00;100721.59;5113538;28;20435;-80
2022/02/14 06:11:10;;;;;;;42.70;20.20;;;;;;;-0.42;100.00;100716.22;5114036;28;20074;-81
2022/02/14 06:13:38;;;;;;;39.28;20.90;;;;;;;-0.36;100.00;100710.94;5113298;28;20067;-79
2022/02/14 06:16:09;;;;;;;40.95;20.58;;;;;;;-0.24;100.00;100710.81;5113727;28;20500;-78
2022/02/14 06:18:37;;;;;;;44.35;20.60;;;;;;;-0.45;100.00;100690.91;5113500;28;20128;-78
2022/02/14 06:21:05;;;;;;;41.15;20.52;;;;;;;-0.22;100.00;100701.19;5095061;28;20040;-78
2022/02/14 06:23:33;;;;;;;46.17;22.00;;;;;;;-0.14;100.00;100701.13;5090934;28;20482;-76
2022/02/14 06:26:03;;;;;;;39.78;20.83;;;;;;;-0.23;100.00;100704.69;5093043;28;20078;-79
2022/02/14 06:28:37;;;;;;;39.78;19.23;;;;;;;-0.28;100.00;100697.78;5091759;28;20060;-78
2022/02/14 06:31:06;;;;;;;33.97;17.83;;;;;;;-0.22;100.00;100698.56;5093378;28;20040;-78
2022/02/14 06:33:35;;;;;;;34.92;18.17;;;;;;;-0.29;100.00;100683.78;5093025;28;20127;-78
2022/02/14 06:36:04;;;;;;;34.75;18.05;;;;;;;-0.27;100.00;100697.75;5093205;28;20044;-79
2022/02/14 06:38:33;;;;;;;32.80;17.90;;;;;;;-0.24;100.00;100688.97;5074779;28;20056;-78
2022/02/14 06:41:03;;;;;;;37.50;19.60;;;;;;;-0.31;100.00;100693.41;5075019;28;20139;-78
2022/02/14 06:43:32;;;;;;;35.40;18.75;;;;;;;-0.20;100.00;100691.56;5093071;28;20105;-80
2022/02/14 06:46:00;;;;;;;32.33;17.17;;;;;;;-0.13;100.00;100680.13;5094453;28;20071;-77
2022/02/14 06:48:28;;;;;;;34.88;18.83;;;;;;;-0.11;100.00;100682.72;5096927;28;20098;-79
2022/02/14 06:50:57;;;;;;;31.92;18.05;;;;;;;-0.16;100.00;100697.66;5097084;28;20488;-76
2022/02/14 06:53:26;;;;;;;38.05;18.25;;;;;;;-0.14;100.00;100696.75;5096975;28;20038;-79
2022/02/14 06:55:55;;;;;;;33.50;19.00;;;;;;;-0.18;100.00;100694.19;5099829;28;20500;-79
2022/02/14 06:58:25;;;;;;;36.95;18.90;;;;;;;-0.14;100.00;100696.75;5096371;28;20040;-79
2022/02/14 07:00:54;;;;;;;32.22;16.98;;;;;;;-0.05;100.00;100701.03;5097010;28;20044;-77
2022/02/14 07:03:23;;;;;;;34.95;18.42;;;;;;;-0.01;100.00;100697.50;5095523;28;20052;-83
2022/02/14 07:05:51;;;;;;;36.08;18.42;;;;;;;0.18;100.00;100691.16;5078496;28;20470;-78
2022/02/14 07:08:20;;;;;;;39.15;18.88;;;;;;;0.23;100.00;100704.25;5096567;28;20123;-76
2022/02/14 07:10:48;;;;;;;36.70;18.92;;;;;;;0.19;100.00;100695.56;5096525;28;20048;-77
2022/02/14 07:13:17;;;;;;;38.63;19.95;;;;;;;0.23;100.00;100699.00;5078518;28;20052;-79
2022/02/14 07:15:46;;;;;;;38.58;18.67;;;;;;;0.19;99.91;100706.06;5078059;28;20405;-79
2022/02/14 07:18:15;;;;;;;43.38;19.92;;;;;;;0.10;100.00;100700.03;5096386;28;20094;-79
2022/02/14 07:20:43;;;;;;;33.97;18.55;;;;;;;0.23;100.00;100702.50;5077858;28;20485;-84
2022/02/14 07:23:12;;;;;;;35.30;19.20;;;;;;;0.10;100.00;100697.41;5096276;28;20096;-84
2022/02/14 07:25:40;;;;;;;35.40;18.58;;;;;;;0.22;100.00;100699.91;5095944;28;20467;-85
2022/02/14 07:28:09;;;;;;;39.13;20.17;;;;;;;0.30;100.00;100705.06;5079190;28;20127;-84
2022/02/14 07:30:37;;;;;;;37.65;19.40;;;;;;;0.16;100.00;100698.19;5078062;28;20052;-84
2022/02/14 07:33:07;;;;;;;34.97;18.60;;;;;;;0.25;100.00;100705.09;5095944;28;20485;-77
2022/02/14 07:35:35;;;;;;;37.13;18.98;;;;;;;0.35;100.00;100703.25;5095567;28;20078;-77
2022/02/14 07:38:04;;;;;;;39.65;20.00;;;;;;;0.34;100.00;100705.00;5077891;28;20044;-77
2022/02/14 07:40:32;;;;;;;42.75;20.45;;;;;;;0.51;100.00;100703.06;5077672;28;20056;-80
2022/02/14 07:43:01;;;;;;;34.88;19.00;;;;;;;0.38;100.00;100698.81;5080583;28;20072;-81
2022/02/14 07:45:30;;;;;;;34.50;18.52;;;;;;;0.44;100.00;100696.13;5077653;28;20067;-81
2022/02/14 07:47:58;;;;;;;37.60;19.73;;;;;;;0.41;100.00;100701.44;5096082;28;20109;-80
2022/02/14 07:50:28;;;;;;;40.85;21.23;;;;;;;0.40;100.00;100704.94;5077914;28;20409;-82
2022/02/14 07:52:56;;;;;;;39.50;20.52;;;;;;;0.35;100.00;100701.47;5077991;28;20371;-82
2022/02/14 07:55:27;;;;;;;36.95;19.90;;;;;;;0.48;100.00;100700.47;5095488;28;20040;-81
2022/02/14 07:57:55;;;;;;;36.47;20.23;;;;;;;0.40;100.00;100696.19;5095765;28;20036;-81
2022/02/14 08:00:23;;;;;;;37.55;20.80;;;;;;;0.53;100.00;100701.28;5077586;28;20426;-81
2022/02/14 08:02:52;;;;;;;33.97;19.70;;;;;;;0.62;100.00;100695.03;5095688;28;20127;-81
2022/02/14 08:05:20;;;;;;;38.40;18.75;;;;;;;0.73;99.46;100692.28;5095598;28;20068;-82
2022/02/14 08:07:50;;;;;;;35.00;19.15;;;;;;;0.74;99.89;100694.00;5095226;28;20075;-81
2022/02/14 08:10:38;;;;;;;40.58;19.25;;;;;;;0.94;97.62;100689.34;5094085;28;20056;-81
2022/02/14 08:13:06;;;;;;;31.95;18.52;;;;;;;1.04;97.06;100683.06;5095743;28;20131;-81
2022/02/14 08:15:34;;;;;;;36.47;18.98;;;;;;;1.16;96.08;100692.56;5077301;28;20098;-82
2022/02/14 08:18:07;;;;;;;36.33;19.90;;;;;;;1.09;96.17;100691.78;5077706;28;20047;-82
2022/02/14 08:20:36;;;;;;;;;;;;;;;1.22;95.63;100687.19;5095695;28;20044;-82
2022/02/14 08:23:09;;;;;;;33.78;18.13;;;;;;;1.29;94.67;100680.09;5095442;28;19920;-82
2022/02/14 08:25:37;;;;;;;35.53;20.10;;;;;;;1.18;95.81;100680.28;5077192;28;20069;-82
2022/02/14 08:28:07;;;;;;;35.38;18.80;;;;;;;1.24;96.58;100685.41;5095033;28;20048;-82
2022/02/14 08:30:35;;;;;;;37.33;19.38;;;;;;;1.30;96.00;100676.56;5095068;28;20398;-82
2022/02/14 08:33:05;;;;;;;36.85;18.45;;;;;;;1.31;96.65;100670.44;5077259;28;20093;-81
2022/02/14 08:35:34;;;;;;;38.95;19.92;;;;;;;1.61;93.87;100664.66;5095484;28;20048;-80
2022/02/14 08:38:02;;;;;;;37.38;19.90;;;;;;;1.53;93.60;100666.53;5077143;28;20050;-82
2022/02/14 08:40:32;;;;;;;37.28;20.83;;;;;;;1.39;94.98;100663.28;5076951;28;20063;-82
2022/02/14 08:43:01;;;;;;;37.75;20.15;;;;;;;1.32;96.46;100656.38;5077175;28;20052;-82
2022/02/14 08:45:42;;;;;;;34.30;19.55;;;;;;;1.66;94.73;100652.31;5095131;28;20404;-82
2022/02/14 08:48:10;;;;;;;37.00;19.95;;;;;;;1.76;93.98;100650.41;5094777;28;20066;-82
2022/02/14 08:50:41;;;;;;;36.40;19.63;;;;;;;1.64;95.34;100654.13;5076782;28;20048;-82
2022/02/14 08:53:10;;;;;;;38.58;20.42;;;;;;;1.80;95.02;100648.56;5094784;28;20132;-81
2022/02/14 08:55:40;;;;;;;35.72;19.40;;;;;;;2.02;93.41;100644.63;5076515;28;20044;-81
2022/02/14 08:58:09;;;;;;;35.60;19.02;;;;;;;1.96;93.27;100639.50;5094878;28;20051;-80
2022/02/14 09:00:38;;;;;;;39.88;20.15;;;;;;;2.08;92.86;100631.38;5076433;28;20397;-82
2022/02/14 09:03:06;;;;;;;36.60;19.25;;;;;;;2.16;92.80;100625.97;5076662;28;20052;-82
2022/02/14 09:05:35;;;;;;;37.30;20.75;;;;;;;2.23;92.29;100623.19;5076232;28;20055;-81
2022/02/14 09:08:04;;;;;;;37.17;20.40;;;;;;;2.50;90.65;100618.22;5093656;28;20044;-81
2022/02/14 09:10:33;;;;;;;35.33;21.23;;;;;;;2.60;89.66;100617.13;5076403;28;20048;-82
2022/02/14 09:13:03;;;;;;;36.03;21.55;;;;;;;2.54;90.11;100622.53;5094408;28;20040;-82
2022/02/14 09:15:36;;;;;;;41.47;20.98;;;;;;;2.51;90.52;100617.31;5094474;28;20157;-82
2022/02/14 09:18:04;;;;;;;37.20;20.27;;;;;;;2.77;89.96;100609.72;5076429;28;20087;-82
2022/02/14 09:20:32;;;;;;;36.85;20.13;;;;;;;2.96;88.10;100606.66;5076071;28;20048;-82
2022/02/14 09:23:01;;;;;;;35.88;19.92;;;;;;;2.93;88.00;100606.75;5094471;28;20485;-82
2022/02/14 09:25:29;;;;;;;38.50;21.08;;;;;;;3.05;87.66;100603.81;5094021;28;20062;-82
2022/02/14 09:27:58;;;;;;;37.38;20.35;;;;;;;3.10;86.91;100613.38;5093914;28;20044;-82
2022/02/14 09:30:29;;;;;;;36.58;20.45;;;;;;;3.04;87.15;100596.81;5094374;28;20044;-82
2022/02/14 09:32:58;;;;;;;36.83;19.95;;;;;;;3.21;86.45;100601.69;5094042;28;20381;-82
2022/02/14 09:35:27;;;;;;;39.78;21.17;;;;;;;3.32;85.86;100595.25;5094126;28;20044;-83
2022/02/14 09:37:58;;;;;;;35.25;20.08;;;;;;;3.39;84.74;100586.28;5093512;28;20131;-81
2022/02/14 09:40:27;;;;;;;39.08;20.63;;;;;;;3.53;83.86;100592.97;5093558;28;20057;-83
2022/02/14 09:43:11;;;;;;;37.17;20.80;;;;;;;3.59;83.60;100588.41;5094252;28;20078;-81
2022/02/14 09:45:41;;;;;;;39.35;20.45;;;;;;;3.65;83.18;100575.03;5093458;28;20139;-82
2022/02/14 09:48:11;;;;;;;37.90;21.17;;;;;;;3.79;81.71;100576.44;5075817;28;20489;-81
2022/02/14 09:50:41;;;;;;;38.13;20.40;;;;;;;3.82;81.88;100577.22;5075700;28;20056;-82
2022/02/14 09:53:11;;;;;;;39.67;21.65;;;;;;;3.81;82.00;100575.50;5076025;28;20131;-81
2022/02/14 09:55:46;;;;;;;34.35;19.38;;;;;;;3.82;81.23;100566.66;5075753;28;20056;-81
2022/02/14 09:58:15;;;;;;;37.63;21.33;;;;;;;3.85;81.83;100565.72;5093386;28;20071;-81
2022/02/14 10:00:44;;;;;;;37.58;20.08;;;;;;;3.97;81.04;100563.63;5093493;28;20036;-81
2022/02/14 10:03:15;;;;;;;34.95;19.65;;;;;;;4.21;78.95;100559.38;5075583;28;20056;-81
2022/02/14 10:05:48;;;;;;;39.22;19.92;;;;;;;4.29;78.92;100556.53;5093022;28;20518;-81
2022/02/14 10:08:21;;;;;;;36.70;19.90;;;;;;;4.27;78.74;100553.06;5093529;28;20055;-82
2022/02/14 10:10:52;;;;;;;34.67;19.30;;;;;;;4.39;77.88;100550.06;5093112;28;20051;-81
2022/02/14 10:13:32;;;;;;;35.55;19.83;;;;;;;4.42;77.76;100551.75;5093528;28;20107;-82
2022/02/14 10:16:07;;;;;;;33.50;19.92;;;;;;;4.45;78.00;100535.81;5093559;28;20466;-80
2022/02/14 10:18:36;;;;;;;33.10;19.00;;;;;;;4.60;76.29;100528.25;5093417;28;20058;-82
2022/02/14 10:21:22;;;;;;;32.95;18.55;;;;;;;4.58;76.60;100522.16;5074554;28;20072;-82
2022/02/14 10:24:01;;;;;;;32.55;19.30;;;;;;;4.68;75.52;100529.81;5093167;28;20044;-82
2022/02/14 10:26:31;;;;;;;32.20;19.23;;;;;;;4.76;75.58;100525.16;5093207;28;20043;-82
2022/02/14 10:29:07;;;;;;;34.75;18.98;;;;;;;4.73;75.05;100527.88;5093023;28;20787;-82
2022/02/14 10:31:42;;;;;;;35.92;19.60;;;;;;;4.78;75.54;100523.31;5075445;28;20075;-82
2022/02/14 10:34:11;;;;;;;35.38;19.65;;;;;;;4.88;74.87;100514.19;5093292;28;20068;-82
2022/02/14 10:36:41;;;;;;;33.60;19.30;;;;;;;4.96;74.54;100516.56;5092956;28;20051;-82
2022/02/14 10:39:13;;;;;;;31.42;18.55;;;;;;;5.07;73.78;100517.94;5093109;28;20044;-82
2022/02/14 10:41:44;;;;;;;34.45;18.75;;;;;;;5.16;73.42;100515.00;5074770;28;20477;-81
2022/02/14 10:45:07;;;;;;;31.90;18.95;;;;;;;5.15;73.44;100507.97;5093169;28;20036;-81
2022/02/14 10:47:20;;;;;;;33.28;18.95;;;;;;;5.25;72.87;100497.09;5092559;28;20044;-81
2022/02/14 10:49:59;;;;;;;34.42;19.60;;;;;;;5.26;73.23;100498.81;5092557;28;20451;-81
2022/02/14 10:52:33;;;;;;;32.08;17.65;;;;;;;5.32;72.84;100501.25;5093114;28;20052;-81
2022/02/14 10:55:01;;;;;;;;;;;;;;;5.50;71.68;100505.00;5092939;28;20036;-82
2022/02/14 10:57:31;;;;;;;33.28;18.20;;;;;;;5.42;71.25;100497.38;5092822;28;19973;-82
2022/02/14 11:00:05;;;;;;;31.00;18.40;;;;;;;5.46;71.59;100496.34;5092971;28;20127;-81
2022/02/14 11:02:36;;;;;;;37.05;19.80;;;;;;;5.60;70.73;100493.22;5093057;28;20075;-81
2022/02/14 11:05:05;;;;;;;33.70;20.05;;;;;;;5.50;71.06;100486.50;5092510;28;20401;-81
2022/02/14 11:07:37;;;;;;;34.33;18.75;;;;;;;5.61;70.95;100479.91;5075082;28;20046;-81
2022/02/14 11:10:09;;;;;;;28.92;18.80;;;;;;;5.66;70.75;100466.50;5092865;28;20556;-81
2022/02/14 11:12:40;;;;;;;31.23;19.30;;;;;;;5.84;69.94;100470.25;5092631;28;20044;-81
2022/02/14 11:15:11;;;;;;;29.65;18.38;;;;;;;5.85;69.87;100461.41;5092808;28;20048;-81
2022/02/14 11:17:46;;;;;;;30.25;18.50;;;;;;;5.89;69.60;100463.03;5074774;28;20044;-81
2022/02/14 11:20:15;;;;;;;33.03;19.48;;;;;;;5.87;69.34;100454.25;5092597;28;20044;-81
2022/02/14 11:22:46;;;;;;;34.17;18.92;;;;;;;5.93;69.03;100454.06;5092629;28;20046;-81
2022/02/14 11:25:23;;;;;;;32.35;20.10;;;;;;;6.02;69.37;100441.34;5092905;28;20063;-81